createdAt,value
2023-02-17T00:02:22.949Z,37.83
2023-02-17T00:04:49.918Z,30.42
2023-02-17T00:07:16.852Z,35.45
2023-02-17T00:09:43.861Z,28.20
2023-02-17T00:12:10.945Z,27.15
2023-02-17T00:14:40.060Z,30.55
2023-02-17T00:17:07.479Z,30.02
2023-02-17T00:19:36.452Z,23.48
2023-02-17T00:22:08.221Z,25.15
2023-02-17T00:24:42.740Z,22.65
2023-02-17T00:27:14.198Z,24.33
2023-02-17T00:29:45.025Z,21.40
2023-02-17T00:34:48.851Z,24.08
2023-02-17T00:37:22.146Z,17.05
2023-02-17T00:39:59.432Z,25.80
2023-02-17T00:42:34.881Z,18.90
2023-02-17T00:45:06.943Z,20.05
2023-02-17T00:47:38.395Z,18.50
2023-02-17T00:50:10.487Z,19.08
2023-02-17T00:52:45.292Z,25.00
2023-02-17T00:55:19.199Z,18.60
2023-02-17T00:57:51.221Z,21.02
2023-02-17T01:00:22.721Z,13.85
2023-02-17T01:02:52.957Z,21.08
2023-02-17T01:05:23.159Z,22.83
2023-02-17T01:07:56.765Z,19.63
2023-02-17T01:10:29.446Z,21.90
2023-02-17T01:13:01.428Z,20.85
2023-02-17T01:15:31.293Z,28.67
2023-02-17T01:18:01.140Z,17.15
2023-02-17T01:20:32.785Z,23.90
2023-02-17T01:23:04.243Z,18.83
2023-02-17T01:25:41.493Z,21.88
2023-02-17T01:28:17.276Z,20.05
2023-02-17T01:30:49.515Z,20.90
2023-02-17T01:33:19.261Z,20.70
2023-02-17T01:35:51.273Z,19.23
2023-02-17T01:38:24.005Z,21.98
2023-02-17T01:40:58.215Z,21.02
2023-02-17T01:43:31.419Z,24.08
2023-02-17T01:46:14.049Z,18.73
2023-02-17T01:48:53.470Z,20.15
2023-02-17T01:51:31.256Z,22.42
2023-02-17T01:54:04.344Z,19.67
2023-02-17T01:56:41.289Z,18.45
2023-02-17T01:59:24.185Z,21.67
2023-02-17T02:02:07.346Z,21.75
2023-02-17T02:04:42.713Z,20.58
2023-02-17T02:07:44.208Z,20.25
2023-02-17T02:10:18.504Z,19.95
2023-02-17T02:12:50.862Z,19.73
2023-02-17T02:15:25.081Z,16.80
2023-02-17T02:18:20.798Z,18.13
2023-02-17T02:21:08.534Z,17.40
2023-02-17T02:23:53.499Z,19.48
2023-02-17T02:27:01.110Z,16.55
2023-02-17T02:29:48.328Z,17.02
2023-02-17T02:32:42.385Z,22.52
2023-02-17T02:35:23.174Z,20.98
2023-02-17T02:40:39.591Z,17.52
2023-02-17T02:43:12.269Z,16.33
2023-02-17T02:45:46.487Z,19.23
2023-02-17T02:48:18.648Z,13.88
2023-02-17T02:51:12.727Z,19.30
2023-02-17T02:54:03.055Z,16.50
2023-02-17T02:56:53.225Z,14.93
2023-02-17T03:00:06.645Z,15.68
2023-02-17T03:03:12.552Z,17.48
2023-02-17T03:06:01.398Z,14.60
2023-02-17T03:08:48.900Z,16.13
2023-02-17T03:11:36.338Z,14.30
2023-02-17T03:14:18.216Z,14.80
2023-02-17T03:16:53.359Z,16.42
2023-02-17T03:19:31.245Z,18.38
2023-02-17T03:22:23.595Z,14.73
2023-02-17T03:24:54.147Z,17.50
2023-02-17T03:27:24.963Z,19.67
2023-02-17T03:29:58.259Z,15.25
2023-02-17T03:32:31.227Z,20.95
2023-02-17T03:35:04.442Z,17.20
2023-02-17T03:37:36.297Z,13.77
2023-02-17T03:40:11.388Z,16.92
2023-02-17T03:42:45.047Z,14.55
2023-02-17T03:45:17.712Z,16.35
2023-02-17T03:47:51.016Z,14.38
2023-02-17T03:50:21.177Z,18.40
2023-02-17T03:52:50.840Z,13.82
2023-02-17T03:55:22.303Z,17.50
2023-02-17T03:57:52.339Z,16.80
2023-02-17T04:00:23.039Z,15.63
2023-02-17T04:02:55.100Z,16.27
2023-02-17T04:05:27.791Z,20.08
2023-02-17T04:07:58.926Z,18.92
2023-02-17T04:10:33.756Z,17.73
2023-02-17T04:13:06.755Z,18.25
2023-02-17T04:15:42.520Z,15.98
2023-02-17T04:18:13.943Z,14.32
2023-02-17T04:20:45.085Z,21.63
2023-02-17T04:23:20.548Z,12.95
2023-02-17T04:25:51.059Z,14.80
2023-02-17T04:30:54.980Z,11.98
2023-02-17T04:33:26.350Z,18.50
2023-02-17T04:36:02.728Z,18.52
2023-02-17T04:38:35.077Z,16.67
2023-02-17T04:41:08.055Z,20.02
2023-02-17T04:43:42.886Z,26.02
2023-02-17T04:46:15.927Z,19.00
2023-02-17T04:48:47.016Z,28.75
2023-02-17T04:51:19.086Z,19.52
2023-02-17T04:53:54.529Z,21.85
2023-02-17T04:56:25.981Z,19.15
2023-02-17T05:01:32.645Z,23.02
2023-02-17T05:04:04.335Z,30.58
2023-02-17T05:06:40.081Z,22.05
2023-02-17T05:09:13.075Z,27.45
2023-02-17T05:11:42.693Z,15.50
2023-02-17T05:14:16.580Z,30.00
2023-02-17T05:16:50.188Z,29.40
2023-02-17T05:19:24.407Z,30.90
2023-02-17T05:21:56.771Z,26.58
2023-02-17T05:24:33.750Z,40.97
2023-02-17T05:27:03.056Z,35.35
2023-02-17T05:29:34.198Z,22.42
2023-02-17T05:32:02.942Z,33.33
2023-02-17T05:34:34.947Z,30.92
2023-02-17T05:37:09.168Z,45.53
2023-02-17T05:39:39.089Z,38.25
2023-02-17T05:42:09.927Z,38.53
2023-02-17T05:44:43.825Z,42.05
2023-02-17T05:47:14.657Z,46.42
2023-02-17T05:49:48.576Z,25.23
2023-02-17T05:52:21.138Z,25.08
2023-02-17T05:54:50.547Z,39.05
2023-02-17T05:57:22.732Z,45.58
2023-02-17T05:59:53.766Z,31.25
2023-02-17T06:02:25.827Z,38.40
2023-02-17T06:04:56.818Z,29.65
2023-02-17T06:07:27.817Z,25.70
2023-02-17T06:10:02.648Z,45.47
2023-02-17T06:12:33.477Z,30.55
2023-02-17T06:15:04.006Z,47.70
2023-02-17T06:17:43.141Z,29.98
2023-02-17T06:20:15.206Z,33.60
2023-02-17T06:25:15.033Z,30.20
2023-02-17T06:27:47.107Z,38.47
2023-02-17T06:30:18.940Z,28.92
2023-02-17T06:32:49.375Z,44.08
2023-02-17T06:37:54.499Z,48.97
2023-02-17T06:40:28.538Z,41.00
2023-02-17T06:43:01.137Z,44.17
2023-02-17T06:45:30.435Z,50.05
2023-02-17T06:48:01.126Z,54.75
2023-02-17T06:53:11.017Z,39.60
2023-02-17T06:55:44.112Z,58.60
2023-02-17T06:58:16.184Z,62.28
2023-02-17T07:00:51.174Z,56.00
2023-02-17T07:03:22.392Z,53.90
2023-02-17T07:05:54.524Z,86.40
2023-02-17T07:08:25.661Z,62.47
2023-02-17T07:11:00.191Z,33.13
2023-02-17T07:13:31.647Z,39.65
2023-02-17T07:16:03.127Z,44.72
2023-02-17T07:18:34.529Z,43.75
2023-02-17T07:21:07.246Z,45.92
2023-02-17T07:23:56.808Z,37.22
2023-02-17T07:26:29.182Z,45.70
2023-02-17T07:28:59.391Z,33.35
2023-02-17T07:31:33.983Z,39.78
2023-02-17T07:34:10.600Z,29.95
2023-02-17T07:36:43.272Z,40.15
2023-02-17T07:39:14.720Z,33.40
2023-02-17T07:41:47.400Z,30.40
2023-02-17T07:44:20.697Z,23.65
2023-02-17T07:46:49.384Z,37.50
2023-02-17T07:49:23.020Z,25.87
2023-02-17T07:51:53.513Z,29.25
2023-02-17T07:54:24.319Z,29.83
2023-02-17T07:56:57.950Z,19.95
2023-02-17T07:59:30.324Z,23.10
2023-02-17T08:02:03.417Z,25.38
2023-02-17T08:04:37.245Z,31.10
2023-02-17T08:07:10.512Z,31.27
2023-02-17T08:10:01.495Z,38.25
2023-02-17T08:12:50.274Z,30.90
2023-02-17T08:15:21.098Z,31.80
2023-02-17T08:17:56.864Z,34.40
2023-02-17T08:20:29.233Z,27.95
2023-02-17T08:23:01.605Z,36.00
2023-02-17T08:25:39.201Z,30.42
2023-02-17T08:28:11.234Z,40.33
2023-02-17T08:30:42.810Z,36.63
2023-02-17T08:33:13.406Z,35.00
2023-02-17T08:35:50.879Z,34.10
2023-02-17T08:38:23.834Z,29.10
2023-02-17T08:40:52.483Z,34.90
2023-02-17T08:43:25.822Z,32.75
2023-02-17T08:45:56.096Z,39.47
2023-02-17T08:48:26.873Z,31.08
2023-02-17T08:51:01.037Z,35.60
2023-02-17T08:53:33.154Z,34.75
2023-02-17T08:56:03.828Z,34.30
2023-02-17T08:58:38.204Z,28.23
2023-02-17T09:01:11.104Z,33.80
2023-02-17T09:03:43.593Z,29.98
2023-02-17T09:06:16.603Z,29.75
2023-02-17T09:08:51.358Z,29.65
2023-02-17T09:11:28.737Z,35.92
2023-02-17T09:14:01.648Z,26.65
2023-02-17T09:16:32.489Z,28.65
2023-02-17T09:19:04.865Z,29.73
2023-02-17T09:21:51.326Z,28.50
2023-02-17T09:24:21.115Z,34.78
2023-02-17T09:26:52.487Z,25.92
2023-02-17T09:29:24.803Z,24.98
2023-02-17T09:32:01.271Z,28.50
2023-02-17T09:34:32.950Z,33.05
2023-02-17T09:37:04.382Z,32.67
2023-02-17T09:39:34.295Z,28.88
2023-02-17T09:42:04.221Z,25.98
2023-02-17T09:45:10.280Z,31.80
2023-02-17T09:47:49.192Z,27.77
2023-02-17T09:50:23.489Z,25.15
2023-02-17T09:53:41.049Z,27.20
2023-02-17T09:56:19.595Z,23.50
2023-02-17T09:59:06.899Z,23.23
2023-02-17T10:01:42.699Z,23.85
2023-02-17T10:04:22.326Z,23.90
2023-02-17T10:07:21.094Z,23.73
2023-02-17T10:10:07.415Z,25.45
2023-02-17T10:12:48.348Z,21.90
2023-02-17T10:15:30.982Z,21.50
2023-02-17T10:18:12.437Z,27.48
2023-02-17T10:21:01.125Z,22.45
2023-02-17T10:23:33.775Z,28.50
2023-02-17T10:26:18.733Z,22.65
2023-02-17T10:29:30.964Z,31.70
2023-02-17T10:32:26.881Z,28.88
2023-02-17T10:35:15.774Z,26.77
2023-02-17T10:37:53.022Z,23.95
2023-02-17T10:40:26.922Z,26.88
2023-02-17T10:43:11.609Z,30.02
2023-02-17T10:45:48.564Z,25.80
2023-02-17T10:48:27.088Z,24.20
2023-02-17T10:51:02.222Z,32.47
2023-02-17T10:53:42.583Z,30.45
2023-02-17T10:56:40.950Z,27.92
2023-02-17T10:59:22.208Z,22.42
2023-02-17T11:01:53.492Z,29.08
2023-02-17T11:04:27.456Z,30.60
2023-02-17T11:07:03.771Z,29.20
2023-02-17T11:09:36.448Z,28.92
2023-02-17T11:12:18.962Z,25.15
2023-02-17T11:14:53.485Z,27.80
2023-02-17T11:20:19.235Z,27.52
2023-02-17T11:23:07.484Z,23.92
2023-02-17T11:25:42.599Z,25.50
2023-02-17T11:28:28.566Z,29.23
2023-02-17T11:31:06.485Z,25.73
2023-02-17T11:33:43.374Z,23.17
2023-02-17T11:36:36.021Z,23.30
2023-02-17T11:39:24.987Z,26.13
2023-02-17T11:41:57.363Z,23.35
2023-02-17T11:44:31.580Z,25.98
2023-02-17T11:47:22.683Z,25.55
2023-02-17T11:50:08.575Z,26.17
2023-02-17T11:53:20.994Z,25.33
2023-02-17T11:55:59.731Z,20.58
2023-02-17T11:59:03.414Z,31.40
2023-02-17T12:02:10.931Z,28.27
2023-02-17T12:05:29.254Z,22.63
2023-02-17T12:08:20.681Z,26.23
2023-02-17T12:10:56.739Z,23.38
2023-02-17T12:13:53.372Z,28.25
2023-02-17T12:16:59.236Z,33.20
2023-02-17T12:19:40.933Z,29.23
2023-02-17T12:22:30.128Z,27.35
2023-02-17T12:25:16.598Z,24.35
2023-02-17T12:27:48.968Z,26.17
2023-02-17T12:30:32.774Z,24.23
2023-02-17T12:33:18.908Z,30.50
2023-02-17T12:35:55.579Z,26.20
2023-02-17T12:38:34.071Z,28.63
2023-02-17T12:41:22.137Z,26.48
2023-02-17T12:44:11.105Z,23.65
2023-02-17T12:46:58.212Z,24.60
2023-02-17T12:49:57.321Z,28.35
2023-02-17T12:52:33.293Z,26.60
2023-02-17T12:55:29.400Z,30.08
2023-02-17T12:58:22.959Z,28.45
2023-02-17T13:01:13.499Z,27.15
2023-02-17T13:03:53.215Z,25.38
2023-02-17T13:06:47.706Z,26.95
2023-02-17T13:09:46.499Z,30.40
2023-02-17T13:12:21.294Z,25.27
2023-02-17T13:15:02.305Z,28.98
2023-02-17T13:20:31.009Z,28.15
2023-02-17T13:23:31.025Z,31.67
2023-02-17T13:26:27.376Z,32.33
2023-02-17T13:29:19.097Z,27.15
2023-02-17T13:32:05.491Z,36.10
2023-02-17T13:34:39.487Z,29.50
2023-02-17T13:37:40.761Z,32.30
2023-02-17T13:42:52.870Z,29.02
2023-02-17T13:45:48.605Z,32.85
2023-02-17T14:49:12.385Z,31.85
2023-02-17T14:51:46.897Z,31.35
2023-02-17T14:54:20.889Z,28.80
2023-02-17T14:57:12.835Z,33.35
2023-02-17T14:59:42.757Z,28.58
2023-02-17T15:02:26.492Z,29.13
2023-02-17T15:04:58.286Z,28.23
2023-02-17T15:07:34.016Z,29.15
2023-02-17T15:10:08.832Z,25.02
2023-02-17T15:12:40.880Z,34.63
2023-02-17T15:15:21.190Z,30.38
2023-02-17T15:17:53.325Z,33.08
2023-02-17T15:20:24.159Z,22.13
2023-02-17T15:22:57.454Z,38.42
2023-02-17T15:25:28.285Z,33.17
2023-02-17T15:27:58.516Z,33.33
2023-02-17T15:30:31.834Z,31.83
2023-02-17T15:33:05.332Z,58.25
2023-02-17T15:35:37.785Z,32.58
2023-02-17T15:38:13.531Z,24.27
2023-02-17T15:40:44.680Z,31.08
2023-02-17T15:43:22.609Z,66.57
2023-02-17T15:45:53.115Z,28.67
2023-02-17T15:48:30.711Z,31.45
2023-02-17T15:51:03.081Z,53.13
2023-02-17T15:53:40.362Z,31.88
2023-02-17T15:56:24.094Z,30.52
2023-02-17T15:58:54.005Z,35.75
2023-02-17T16:01:39.900Z,26.40
2023-02-17T16:04:21.485Z,32.88
2023-02-17T16:06:52.632Z,23.00
2023-02-17T16:09:25.928Z,26.60
2023-02-17T16:12:01.323Z,28.25
2023-02-17T16:14:40.817Z,35.10
2023-02-17T16:17:18.579Z,33.17
2023-02-17T16:19:52.622Z,29.77
2023-02-17T16:22:25.004Z,30.48
2023-02-17T16:24:54.239Z,26.75
2023-02-17T16:27:30.056Z,40.22
2023-02-17T16:30:03.529Z,27.00
2023-02-17T16:32:36.644Z,27.48
2023-02-17T16:35:10.550Z,31.38
2023-02-17T16:37:40.961Z,32.33
2023-02-17T16:40:32.498Z,23.67
2023-02-17T16:43:03.633Z,35.42
2023-02-17T16:45:42.878Z,41.38
2023-02-17T17:49:55.102Z,27.63
2023-02-17T17:52:29.612Z,25.60
2023-02-17T17:55:00.663Z,21.65
2023-02-17T17:57:30.940Z,20.03
2023-02-17T18:00:04.887Z,30.70
2023-02-17T18:02:37.570Z,18.35
2023-02-17T18:05:09.327Z,21.88
2023-02-17T18:07:40.936Z,23.85
2023-02-17T18:10:14.990Z,21.50
2023-02-17T18:12:47.371Z,25.75
2023-02-17T18:15:20.662Z,24.55
2023-02-17T18:17:52.728Z,26.85
2023-02-17T18:20:22.613Z,22.50
2023-02-17T18:22:52.559Z,26.55
2023-02-17T18:25:24.039Z,21.48
2023-02-17T18:28:00.053Z,24.77
2023-02-17T18:30:32.459Z,20.60
2023-02-17T18:33:02.513Z,7.78
2023-02-17T18:35:32.568Z,23.25
2023-02-17T18:38:03.676Z,19.77
2023-02-17T18:40:35.147Z,13.63
2023-02-17T18:43:04.403Z,22.70
2023-02-17T18:46:00.898Z,24.42
2023-02-17T18:48:32.556Z,22.65
2023-02-17T18:51:13.529Z,25.38
2023-02-17T18:53:46.826Z,18.30
2023-02-17T18:56:29.337Z,21.00
2023-02-17T18:59:03.342Z,20.20
2023-02-17T19:01:39.408Z,16.17
2023-02-17T19:04:14.748Z,18.52
2023-02-17T19:06:45.277Z,20.23
2023-02-17T19:09:13.954Z,21.05
2023-02-17T19:11:43.384Z,20.95
2023-02-17T19:14:16.557Z,21.73
2023-02-17T19:16:47.690Z,22.13
2023-02-17T19:21:52.746Z,18.20
2023-02-17T19:24:26.043Z,17.98
2023-02-17T19:26:57.184Z,10.20
2023-02-17T19:29:30.176Z,17.05
2023-02-17T19:32:07.520Z,10.82
2023-02-17T19:34:42.600Z,11.43
2023-02-17T19:37:14.977Z,16.90
2023-02-17T19:39:47.654Z,14.88
2023-02-17T19:42:23.091Z,11.25
2023-02-17T19:44:53.014Z,11.15
2023-02-17T19:47:22.930Z,10.13
2023-02-17T19:49:54.074Z,10.75
2023-02-17T19:52:25.521Z,8.52
2023-02-17T19:54:59.900Z,9.43
2023-02-17T19:57:33.347Z,12.60
2023-02-17T20:00:05.408Z,9.38
2023-02-17T20:02:43.973Z,10.55
2023-02-17T20:05:14.451Z,9.30
2023-02-17T20:07:49.286Z,7.97
2023-02-17T20:10:22.275Z,8.82
2023-02-17T20:12:52.497Z,8.65
2023-02-17T20:15:25.580Z,6.67
2023-02-17T20:17:56.620Z,5.90
2023-02-17T20:20:25.624Z,5.10
2023-02-17T20:22:59.529Z,9.33
2023-02-17T20:25:30.056Z,8.20
2023-02-17T20:28:03.041Z,9.48
2023-02-17T20:30:33.872Z,8.35
2023-02-17T20:33:06.564Z,5.15
2023-02-17T20:35:39.544Z,7.27
2023-02-17T20:38:12.224Z,6.25
2023-02-17T20:40:42.445Z,6.88
2023-02-17T20:43:13.798Z,3.85
2023-02-17T20:48:21.098Z,7.63
2023-02-17T20:50:53.268Z,3.75
2023-02-17T20:53:24.009Z,4.80
2023-02-17T20:55:55.768Z,4.95
2023-02-17T20:58:28.462Z,8.80
2023-02-17T21:01:00.257Z,4.38
2023-02-17T21:03:32.470Z,7.60
2023-02-17T21:06:10.286Z,4.13
2023-02-17T21:08:43.157Z,2.28
2023-02-17T21:11:15.110Z,7.05
2023-02-17T21:13:44.496Z,6.18
2023-02-17T21:16:23.111Z,5.50
2023-02-17T21:18:55.735Z,6.53
2023-02-17T21:21:28.822Z,3.08
2023-02-17T21:24:02.003Z,3.13
2023-02-17T21:26:36.221Z,4.32
2023-02-17T21:29:13.501Z,5.03
2023-02-17T21:31:43.210Z,7.53
2023-02-17T21:34:14.900Z,5.03
2023-02-17T21:36:47.242Z,4.93
2023-02-17T21:39:17.157Z,4.28
2023-02-17T21:41:47.065Z,4.30
2023-02-17T21:44:36.657Z,3.78
2023-02-17T21:47:07.490Z,4.82
2023-02-17T21:49:39.546Z,5.57
2023-02-17T21:52:13.459Z,5.15
2023-02-17T21:54:46.139Z,4.72
2023-02-17T21:57:16.684Z,2.95
2023-02-17T21:59:48.110Z,4.38
2023-02-17T22:02:17.722Z,3.10
2023-02-17T22:04:50.883Z,2.95
2023-02-17T22:07:20.760Z,2.63
2023-02-17T22:09:52.688Z,2.77
2023-02-17T22:12:24.443Z,1.67
2023-02-17T22:14:55.254Z,1.77
2023-02-17T22:17:26.136Z,5.30
2023-02-17T22:20:00.882Z,3.42
2023-02-17T22:22:34.544Z,3.58
2023-02-17T22:25:05.085Z,3.10
2023-02-17T22:27:35.271Z,3.30
2023-02-17T22:30:10.886Z,3.17
2023-02-17T22:32:46.813Z,2.70
2023-02-17T22:35:22.007Z,2.40
2023-02-17T22:37:53.400Z,3.13
2023-02-17T22:40:26.076Z,3.38
2023-02-17T22:42:57.834Z,2.10
2023-02-17T22:45:27.131Z,2.58
2023-02-17T22:48:00.904Z,2.90
2023-02-17T22:50:32.497Z,2.85
2023-02-17T22:53:04.866Z,2.65
2023-02-17T22:55:40.005Z,3.85
2023-02-17T22:58:11.058Z,4.93
2023-02-17T23:03:22.968Z,2.65
2023-02-17T23:05:52.868Z,3.10
2023-02-17T23:08:22.794Z,3.28
2023-02-17T23:10:52.700Z,2.78
2023-02-17T23:13:23.848Z,3.47
2023-02-17T23:15:55.918Z,3.17
2023-02-17T23:18:30.906Z,4.18
2023-02-17T23:21:02.498Z,3.88
2023-02-17T23:23:32.722Z,2.13
2023-02-17T23:26:03.579Z,4.07
2023-02-17T23:28:36.241Z,2.72
2023-02-17T23:31:08.090Z,2.65
2023-02-17T23:33:42.529Z,3.85
2023-02-17T23:36:12.437Z,4.40
2023-02-17T23:38:46.352Z,3.60
2023-02-17T23:41:20.855Z,3.25
2023-02-17T23:43:52.008Z,5.05
2023-02-17T23:46:22.511Z,3.17
2023-02-17T23:48:52.463Z,6.10
2023-02-17T23:51:23.907Z,5.63
2023-02-17T23:53:57.200Z,3.55
2023-02-17T23:56:38.507Z,3.83
2023-02-17T23:59:14.536Z,5.00
